createdAt,value
2022-11-25T00:01:26.093Z,98203.15
2022-11-25T00:03:55.080Z,98203.29
2022-11-25T00:06:29.968Z,98203.42
2022-11-25T00:08:59.337Z,98206.52
2022-11-25T00:11:26.603Z,98205.80
2022-11-25T00:13:53.654Z,98206.81
2022-11-25T00:16:21.886Z,98205.05
2022-11-25T00:18:52.252Z,98208.64
2022-11-25T00:21:21.480Z,98206.44
2022-11-25T00:23:57.022Z,98210.02
2022-11-25T00:26:24.420Z,98210.90
2022-11-25T00:28:51.969Z,98215.17
2022-11-25T00:31:27.597Z,98220.61
2022-11-25T00:33:54.452Z,98221.31
2022-11-25T00:36:36.455Z,98220.98
2022-11-25T00:39:13.436Z,98220.97
2022-11-25T00:41:40.392Z,98225.71
2022-11-25T00:44:09.681Z,98224.67
2022-11-25T00:46:36.149Z,98223.85
2022-11-25T00:49:02.670Z,98216.70
2022-11-25T00:51:29.212Z,98218.58
2022-11-25T00:53:58.946Z,98209.74
2022-11-25T00:56:26.273Z,98217.27
2022-11-25T00:58:53.464Z,98215.62
2022-11-25T01:01:20.146Z,98213.46
2022-11-25T01:03:49.531Z,98210.45
2022-11-25T01:06:16.079Z,98212.69
2022-11-25T01:08:42.539Z,98216.10
2022-11-25T01:11:13.167Z,98218.30
2022-11-25T01:13:40.059Z,98219.16
2022-11-25T01:16:08.776Z,98220.82
2022-11-25T01:18:35.698Z,98221.48
2022-11-25T01:21:23.347Z,98225.05
2022-11-25T01:23:50.525Z,98223.67
2022-11-25T01:26:22.889Z,98220.93
2022-11-25T01:28:52.856Z,98221.44
2022-11-25T01:31:21.194Z,98220.05
2022-11-25T01:33:52.558Z,98216.48
2022-11-25T01:36:19.380Z,98219.34
2022-11-25T01:38:50.815Z,98220.19
2022-11-25T01:41:17.584Z,98217.81
2022-11-25T01:43:44.145Z,98217.85
2022-11-25T01:46:21.065Z,98219.21
2022-11-25T01:48:53.655Z,98218.89
2022-11-25T01:51:28.058Z,98212.26
2022-11-25T01:54:01.417Z,98205.63
2022-11-25T01:56:30.931Z,98207.86
2022-11-25T01:58:57.572Z,98205.04
2022-11-25T02:01:24.221Z,98206.26
2022-11-25T02:03:54.443Z,98209.50
2022-11-25T02:06:27.999Z,98211.38
2022-11-25T02:08:59.679Z,98212.54
2022-11-25T02:11:28.620Z,98212.02
2022-11-25T02:13:55.859Z,98214.91
2022-11-25T02:16:22.342Z,98214.44
2022-11-25T02:18:52.222Z,98215.48
2022-11-25T02:21:27.082Z,98218.91
2022-11-25T02:23:58.891Z,98217.23
2022-11-25T02:26:25.753Z,98217.42
2022-11-25T02:28:53.060Z,98218.30
2022-11-25T02:31:21.848Z,98214.41
2022-11-25T02:33:48.764Z,98212.92
2022-11-25T02:36:19.953Z,98211.04
2022-11-25T02:38:50.778Z,98209.21
2022-11-25T02:41:21.087Z,98212.83
2022-11-25T02:43:47.611Z,98215.25
2022-11-25T02:46:21.824Z,98218.11
2022-11-25T02:51:38.707Z,98222.59
2022-11-25T02:54:05.633Z,98223.80
2022-11-25T02:56:33.815Z,98225.72
2022-11-25T02:59:01.393Z,98226.77
2022-11-25T03:01:29.172Z,98230.19
2022-11-25T03:03:55.645Z,98228.65
2022-11-25T03:06:22.384Z,98231.52
2022-11-25T03:08:49.074Z,98232.88
2022-11-25T03:11:16.044Z,98237.30
2022-11-25T03:13:42.562Z,98234.41
2022-11-25T03:16:09.388Z,98237.14
2022-11-25T03:18:36.389Z,98239.30
2022-11-25T03:21:03.136Z,98244.71
2022-11-25T03:23:29.677Z,98247.41
2022-11-25T03:25:57.242Z,98246.02
2022-11-25T03:28:23.666Z,98243.91
2022-11-25T03:30:50.428Z,98244.91
2022-11-25T03:33:16.968Z,98246.90
2022-11-25T03:35:43.535Z,98247.02
2022-11-25T03:38:10.050Z,98248.91
2022-11-25T03:40:36.502Z,98251.98
2022-11-25T03:43:03.644Z,98253.13
2022-11-25T03:45:30.164Z,98258.69
2022-11-25T03:47:56.832Z,98261.73
2022-11-25T03:50:23.367Z,98259.82
2022-11-25T03:52:49.906Z,98262.52
2022-11-25T03:55:16.455Z,98263.52
2022-11-25T03:57:42.991Z,98266.61
2022-11-25T04:00:10.104Z,98271.41
2022-11-25T04:02:36.608Z,98270.36
2022-11-25T04:05:03.835Z,98269.71
2022-11-25T04:07:30.628Z,98270.10
2022-11-25T04:09:57.222Z,98267.73
2022-11-25T04:12:23.655Z,98270.13
2022-11-25T04:14:50.202Z,98274.04
2022-11-25T04:17:16.746Z,98274.38
2022-11-25T04:19:43.282Z,98279.79
2022-11-25T04:22:09.826Z,98277.91
2022-11-25T04:24:36.345Z,98278.70
2022-11-25T04:27:03.167Z,98277.33
2022-11-25T04:29:29.651Z,98275.41
2022-11-25T04:31:56.088Z,98275.91
2022-11-25T04:34:22.647Z,98277.63
2022-11-25T04:36:49.170Z,98280.55
2022-11-25T04:39:15.604Z,98284.48
2022-11-25T04:41:42.091Z,98283.66
2022-11-25T04:44:08.536Z,98284.34
2022-11-25T04:46:39.697Z,98284.34
2022-11-25T04:49:06.495Z,98286.07
2022-11-25T04:51:32.933Z,98282.53
2022-11-25T04:53:59.369Z,98283.73
2022-11-25T04:56:25.913Z,98286.29
2022-11-25T04:58:52.453Z,98286.10
2022-11-25T05:01:18.925Z,98286.39
2022-11-25T05:03:50.721Z,98288.39
2022-11-25T05:06:19.540Z,98288.52
2022-11-25T05:08:49.261Z,98291.73
2022-11-25T05:11:16.238Z,98292.02
2022-11-25T05:13:43.075Z,98294.73
2022-11-25T05:16:09.810Z,98298.80
2022-11-25T05:18:36.193Z,98299.98
2022-11-25T05:21:04.134Z,98302.36
2022-11-25T05:23:31.000Z,98303.40
2022-11-25T05:26:02.326Z,98304.27
2022-11-25T05:28:29.589Z,98304.13
2022-11-25T05:30:56.344Z,98306.02
2022-11-25T05:33:23.284Z,98313.56
2022-11-25T05:36:01.122Z,98308.95
2022-11-25T05:38:28.527Z,98316.98
2022-11-25T05:41:01.688Z,98316.13
2022-11-25T05:43:28.491Z,98320.28
2022-11-25T05:45:54.991Z,98316.46
2022-11-25T05:48:21.395Z,98321.89
2022-11-25T05:50:47.912Z,98329.20
2022-11-25T05:53:14.541Z,98331.21
2022-11-25T05:55:40.990Z,98333.10
2022-11-25T05:58:07.532Z,98331.91
2022-11-25T06:00:34.049Z,98335.33
2022-11-25T06:03:00.758Z,98330.33
2022-11-25T06:05:27.560Z,98333.03
2022-11-25T06:07:54.053Z,98337.25
2022-11-25T06:10:20.802Z,98338.73
2022-11-25T06:12:47.802Z,98346.03
2022-11-25T06:15:14.192Z,98346.67
2022-11-25T06:17:40.654Z,98352.98
2022-11-25T06:20:07.781Z,98355.20
2022-11-25T06:22:34.266Z,98357.63
2022-11-25T06:25:03.873Z,98358.48
2022-11-25T06:27:50.062Z,98364.77
2022-11-25T06:30:17.871Z,98363.04
2022-11-25T06:32:44.696Z,98366.77
2022-11-25T06:35:11.115Z,98369.82
2022-11-25T06:37:37.881Z,98371.52
2022-11-25T06:40:07.292Z,98373.90
2022-11-25T06:42:34.001Z,98378.36
2022-11-25T06:45:00.567Z,98378.35
2022-11-25T06:47:26.992Z,98379.17
2022-11-25T06:49:53.444Z,98376.90
2022-11-25T06:52:19.922Z,98378.67
2022-11-25T06:54:46.626Z,98380.98
2022-11-25T06:57:17.369Z,98380.02
2022-11-25T06:59:43.805Z,98387.10
2022-11-25T07:02:12.256Z,98390.96
2022-11-25T07:04:39.044Z,98394.48
2022-11-25T07:07:05.888Z,98395.99
2022-11-25T07:09:32.304Z,98394.70
2022-11-25T07:11:58.869Z,98398.05
2022-11-25T07:14:25.279Z,98396.42
2022-11-25T07:16:52.041Z,98406.67
2022-11-25T07:19:19.476Z,98409.25
2022-11-25T07:21:46.767Z,98410.77
2022-11-25T07:24:15.426Z,98409.92
2022-11-25T07:26:43.607Z,98410.45
2022-11-25T07:29:36.108Z,98410.49
2022-11-25T07:32:02.488Z,98411.69
2022-11-25T07:34:32.330Z,98408.91
2022-11-25T07:36:58.756Z,98407.32
2022-11-25T07:39:25.147Z,98406.20
2022-11-25T07:41:54.827Z,98410.42
2022-11-25T07:44:21.957Z,98411.23
2022-11-25T07:46:49.931Z,98415.77
2022-11-25T07:49:22.213Z,98417.77
2022-11-25T07:51:57.349Z,98417.53
2022-11-25T07:54:24.307Z,98420.16
2022-11-25T07:56:51.665Z,98425.41
2022-11-25T07:59:20.543Z,98423.83
2022-11-25T08:01:49.851Z,98419.31
2022-11-25T08:04:20.463Z,98420.61
2022-11-25T08:06:49.291Z,98420.13
2022-11-25T08:09:21.164Z,98422.52
2022-11-25T08:11:49.008Z,98429.11
2022-11-25T08:14:16.226Z,98430.88
2022-11-25T08:16:42.831Z,98430.91
2022-11-25T08:19:12.612Z,98433.33
2022-11-25T08:21:40.178Z,98435.74
2022-11-25T08:24:06.786Z,98434.08
2022-11-25T08:26:36.338Z,98434.23
2022-11-25T08:29:05.228Z,98434.94
2022-11-25T08:31:34.812Z,98436.55
2022-11-25T08:34:01.915Z,98437.48
2022-11-25T08:36:29.676Z,98442.64
2022-11-25T08:38:58.580Z,98446.08
2022-11-25T08:41:31.890Z,98448.70
2022-11-25T08:44:00.370Z,98449.23
2022-11-25T08:46:30.221Z,98451.33
2022-11-25T08:48:57.238Z,98452.16
2022-11-25T08:51:27.362Z,98453.55
2022-11-25T08:53:54.041Z,98455.98
2022-11-25T08:56:26.081Z,98456.24
2022-11-25T08:58:56.749Z,98458.65
2022-11-25T09:01:24.644Z,98459.86
2022-11-25T09:03:52.967Z,98460.35
2022-11-25T09:06:20.134Z,98464.43
2022-11-25T09:08:46.788Z,98462.31
2022-11-25T09:11:13.879Z,98465.63
2022-11-25T09:13:40.651Z,98465.79
2022-11-25T09:16:07.914Z,98466.56
2022-11-25T09:18:34.344Z,98467.39
2022-11-25T09:21:08.113Z,98470.76
2022-11-25T09:23:34.601Z,98472.75
2022-11-25T09:26:01.036Z,98470.83
2022-11-25T09:28:27.504Z,98476.87
2022-11-25T09:30:54.986Z,98473.56
2022-11-25T09:33:21.806Z,98471.98
2022-11-25T09:35:48.542Z,98472.00
2022-11-25T09:38:15.081Z,98474.05
2022-11-25T09:40:56.910Z,98475.64
2022-11-25T09:44:01.493Z,98472.11
2022-11-25T09:47:04.287Z,98474.80
2022-11-25T09:49:52.796Z,98476.27
2022-11-25T09:52:22.263Z,98476.20
2022-11-25T09:54:57.201Z,98476.16
2022-11-25T09:57:56.471Z,98475.77
2022-11-25T10:00:33.789Z,98477.98
2022-11-25T10:03:06.489Z,98482.26
2022-11-25T10:05:44.896Z,98478.13
2022-11-25T10:08:21.049Z,98482.16
2022-11-25T10:10:53.190Z,98481.77
2022-11-25T10:13:32.146Z,98483.63
2022-11-25T10:16:04.021Z,98484.71
2022-11-25T10:18:39.565Z,98481.17
2022-11-25T10:21:06.342Z,98483.80
2022-11-25T10:23:36.876Z,98477.90
2022-11-25T10:26:12.385Z,98482.82
2022-11-25T10:28:43.968Z,98480.39
2022-11-25T10:31:17.827Z,98483.56
2022-11-25T10:33:46.243Z,98482.58
2022-11-25T10:36:23.751Z,98482.01
2022-11-25T10:39:05.227Z,98481.82
2022-11-25T10:41:53.547Z,98484.31
2022-11-25T10:44:27.184Z,98488.23
2022-11-25T10:47:18.032Z,98484.73
2022-11-25T10:50:18.584Z,98487.84
2022-11-25T10:53:00.918Z,98491.59
2022-11-25T10:55:30.165Z,98492.63
2022-11-25T10:57:56.783Z,98491.13
2022-11-25T11:00:43.490Z,98490.61
2022-11-25T11:03:16.142Z,98489.73
2022-11-25T11:05:49.115Z,98490.77
2022-11-25T11:08:19.910Z,98494.34
2022-11-25T11:10:51.689Z,98491.89
2022-11-25T11:13:24.913Z,98490.29
2022-11-25T11:15:54.216Z,98492.41
2022-11-25T11:18:38.909Z,98495.90
2022-11-25T11:21:08.517Z,98494.91
2022-11-25T11:23:50.899Z,98494.57
2022-11-25T11:26:34.603Z,98495.52
2022-11-25T11:29:03.188Z,98495.48
2022-11-25T11:31:36.609Z,98493.02
2022-11-25T11:34:18.618Z,98497.38
2022-11-25T11:36:45.034Z,98499.42
2022-11-25T11:39:30.010Z,98501.99
2022-11-25T11:42:06.778Z,98498.25
2022-11-25T11:44:54.823Z,98496.91
2022-11-25T11:47:58.229Z,98492.63
2022-11-25T11:50:37.056Z,98495.49
2022-11-25T11:53:30.730Z,98496.70
2022-11-25T11:56:35.374Z,98496.79
2022-11-25T11:59:23.394Z,98502.80
2022-11-25T12:01:58.806Z,98503.35
2022-11-25T12:04:36.487Z,98501.70
2022-11-25T12:07:47.498Z,98501.81
2022-11-25T12:10:58.699Z,98502.38
2022-11-25T12:13:42.206Z,98502.23
2022-11-25T12:16:17.485Z,98503.23
2022-11-25T12:19:06.679Z,98503.50
2022-11-25T12:22:00.971Z,98501.85
2022-11-25T12:24:53.248Z,98500.56
2022-11-25T12:27:38.605Z,98501.63
2022-11-25T12:30:18.794Z,98505.76
2022-11-25T12:33:01.682Z,98508.30
2022-11-25T12:35:37.852Z,98505.48
2022-11-25T12:38:04.316Z,98505.91
2022-11-25T12:40:53.043Z,98509.58
2022-11-25T12:43:42.733Z,98509.03
2022-11-25T12:46:12.256Z,98510.90
2022-11-25T12:48:41.859Z,98516.54
2022-11-25T12:51:26.971Z,98517.52
2022-11-25T12:54:34.397Z,98516.54
2022-11-25T12:57:07.328Z,98520.99
2022-11-25T13:00:11.308Z,98520.80
2022-11-25T13:02:57.347Z,98525.34
2022-11-25T13:06:04.647Z,98523.39
2022-11-25T13:08:49.203Z,98523.44
2022-11-25T13:11:31.104Z,98526.83
2022-11-25T13:14:13.436Z,98528.14
2022-11-25T13:16:42.560Z,98527.96
2022-11-25T13:19:10.696Z,98528.77
2022-11-25T13:21:54.456Z,98529.08
2022-11-25T13:24:47.739Z,98525.57
2022-11-25T13:27:33.720Z,98529.72
2022-11-25T13:30:01.092Z,98533.05
2022-11-25T13:32:35.205Z,98534.63
2022-11-25T13:35:23.867Z,98533.79
2022-11-25T13:37:51.385Z,98527.65
2022-11-25T13:40:21.323Z,98530.73
2022-11-25T13:42:47.949Z,98537.61
2022-11-25T13:45:38.191Z,98535.90
2022-11-25T13:48:32.136Z,98539.63
2022-11-25T13:51:19.010Z,98537.79
2022-11-25T13:53:56.348Z,98541.98
2022-11-25T13:56:30.361Z,98545.58
2022-11-25T13:59:12.281Z,98545.95
2022-11-25T14:01:46.226Z,98545.98
2022-11-25T14:04:15.661Z,98543.89
2022-11-25T14:07:09.728Z,98548.55
2022-11-25T14:10:02.924Z,98548.35
2022-11-25T14:12:47.710Z,98554.07
2022-11-25T14:15:14.146Z,98556.60
2022-11-25T14:18:02.206Z,98552.45
2022-11-25T14:20:34.465Z,98553.29
2022-11-25T14:23:00.928Z,98554.33
2022-11-25T14:25:32.185Z,98554.20
2022-11-25T14:28:20.694Z,98554.34
2022-11-25T14:30:53.602Z,98555.52
2022-11-25T14:33:34.253Z,98557.95
2022-11-25T14:36:08.013Z,98559.54
2022-11-25T14:38:48.865Z,98563.11
2022-11-25T14:41:52.470Z,98569.98
2022-11-25T14:44:28.267Z,98564.01
2022-11-25T14:46:57.603Z,98563.77
2022-11-25T14:49:59.641Z,98566.88
2022-11-25T14:52:17.221Z,98565.20
2022-11-25T14:54:45.442Z,98566.66
2022-11-25T14:57:12.276Z,98565.52
2022-11-25T14:59:44.978Z,98566.92
2022-11-25T15:02:58.536Z,98571.77
2022-11-25T15:05:30.865Z,98570.29
2022-11-25T15:08:09.105Z,98570.13
2022-11-25T15:10:44.124Z,98569.66
2022-11-25T15:13:38.306Z,98570.36
2022-11-25T15:16:12.432Z,98573.77
2022-11-25T15:18:47.885Z,98574.27
2022-11-25T15:21:15.954Z,98575.77
2022-11-25T15:23:42.798Z,98577.84
2022-11-25T15:26:17.425Z,98581.46
2022-11-25T15:28:44.276Z,98579.10
2022-11-25T15:31:17.639Z,98580.14
2022-11-25T15:33:45.046Z,98583.25
2022-11-25T15:36:11.964Z,98584.65
2022-11-25T15:38:44.124Z,98587.39
2022-11-25T15:41:21.046Z,98588.42
2022-11-25T15:43:51.419Z,98586.54
2022-11-25T15:46:18.307Z,98586.89
2022-11-25T15:48:47.317Z,98585.55
2022-11-25T15:51:41.664Z,98586.77
2022-11-25T15:54:21.998Z,98588.15
2022-11-25T15:56:53.135Z,98588.45
2022-11-25T15:59:45.399Z,98581.73
2022-11-25T16:02:30.719Z,98583.89
2022-11-25T16:05:12.305Z,98584.00
2022-11-25T16:07:50.783Z,98586.75
2022-11-25T16:10:25.337Z,98583.02
2022-11-25T16:13:22.126Z,98583.06
2022-11-25T16:16:07.548Z,98586.84
2022-11-25T16:18:42.728Z,98587.55
2022-11-25T16:21:13.824Z,98584.29
2022-11-25T16:23:43.998Z,98583.84
2022-11-25T16:26:15.809Z,98586.44
2022-11-25T16:28:50.352Z,98586.95
2022-11-25T16:31:17.570Z,98589.18
2022-11-25T16:33:44.332Z,98589.16
2022-11-25T16:36:10.870Z,98591.52
2022-11-25T16:38:37.309Z,98589.29
2022-11-25T16:41:30.282Z,98589.60
2022-11-25T16:44:00.282Z,98597.97
2022-11-25T16:46:29.568Z,98596.44
2022-11-25T16:48:56.233Z,98594.85
2022-11-25T16:51:24.520Z,98591.07
2022-11-25T16:53:51.408Z,98594.33
2022-11-25T16:56:26.690Z,98597.14
2022-11-25T16:58:53.968Z,98598.70
2022-11-25T17:01:24.712Z,98606.77
2022-11-25T17:03:51.277Z,98609.34
2022-11-25T17:06:22.391Z,98617.89
2022-11-25T17:08:50.779Z,98615.19
2022-11-25T17:11:32.259Z,98617.64
2022-11-25T17:14:02.447Z,98617.65
2022-11-25T17:16:30.026Z,98623.66
2022-11-25T17:18:59.560Z,98619.39
2022-11-25T17:21:27.335Z,98621.80
2022-11-25T17:23:55.496Z,98625.73
2022-11-25T17:26:31.059Z,98624.24
2022-11-25T17:29:00.220Z,98616.89
2022-11-25T17:31:29.971Z,98621.55
2022-11-25T17:33:56.728Z,98631.19
2022-11-25T17:36:24.366Z,98634.36
2022-11-25T17:38:50.835Z,98630.27
2022-11-25T17:41:19.521Z,98628.55
2022-11-25T17:43:49.036Z,98629.06
2022-11-25T17:46:17.647Z,98630.23
2022-11-25T17:48:44.774Z,98632.29
2022-11-25T17:51:13.256Z,98630.59
2022-11-25T17:53:41.114Z,98627.18
2022-11-25T17:56:28.456Z,98629.60
2022-11-25T17:58:59.177Z,98627.66
2022-11-25T18:01:25.647Z,98634.66
2022-11-25T18:03:52.384Z,98638.95
2022-11-25T18:06:19.329Z,98641.01
2022-11-25T18:08:45.767Z,98645.48
2022-11-25T18:11:18.684Z,98642.55
2022-11-25T18:13:47.332Z,98647.14
2022-11-25T18:16:17.132Z,98648.65
2022-11-25T18:18:43.609Z,98641.80
2022-11-25T18:21:11.532Z,98644.21
2022-11-25T18:23:38.104Z,98646.11
2022-11-25T18:26:05.099Z,98651.73
2022-11-25T18:28:32.837Z,98653.79
2022-11-25T18:31:04.859Z,98661.14
2022-11-25T18:33:31.996Z,98665.22
2022-11-25T18:35:58.679Z,98659.76
2022-11-25T18:38:25.347Z,98663.71
2022-11-25T18:40:53.805Z,98660.95
2022-11-25T18:43:23.202Z,98661.48
2022-11-25T18:45:50.086Z,98667.33
2022-11-25T18:48:19.886Z,98670.77
2022-11-25T18:50:49.232Z,98676.09
2022-11-25T18:53:16.167Z,98674.39
2022-11-25T18:55:43.467Z,98672.63
2022-11-25T18:58:23.582Z,98671.23
2022-11-25T19:00:52.023Z,98670.35
2022-11-25T19:03:24.771Z,98673.27
2022-11-25T19:05:52.113Z,98676.05
2022-11-25T19:08:18.689Z,98679.37
2022-11-25T19:10:47.043Z,98675.26
2022-11-25T19:13:35.309Z,98677.48
2022-11-25T19:16:07.225Z,98675.58
2022-11-25T19:18:35.006Z,98673.02
2022-11-25T19:21:01.584Z,98668.43
2022-11-25T19:23:28.179Z,98667.43
2022-11-25T19:26:00.925Z,98674.44
2022-11-25T19:28:29.483Z,98676.50
2022-11-25T19:31:00.300Z,98678.74
2022-11-25T19:33:31.014Z,98678.23
2022-11-25T19:35:57.947Z,98685.05
2022-11-25T19:38:24.573Z,98684.21
2022-11-25T19:40:54.769Z,98687.24
2022-11-25T19:43:21.985Z,98688.26
2022-11-25T19:45:51.357Z,98692.52
2022-11-25T19:48:20.942Z,98699.56
2022-11-25T19:50:49.688Z,98697.34
2022-11-25T19:53:20.211Z,98699.56
2022-11-25T19:55:47.941Z,98698.87
2022-11-25T19:58:15.319Z,98707.92
2022-11-25T20:00:43.932Z,98707.55
2022-11-25T20:03:17.482Z,98702.75
2022-11-25T20:05:44.850Z,98704.46
2022-11-25T20:08:19.863Z,98704.10
2022-11-25T20:10:46.625Z,98708.70
2022-11-25T20:13:13.788Z,98715.05
2022-11-25T20:15:41.272Z,98720.73
2022-11-25T20:18:17.822Z,98727.07
2022-11-25T20:20:46.639Z,98738.58
2022-11-25T20:23:43.675Z,98743.09
2022-11-25T20:26:18.888Z,98736.66
2022-11-25T20:28:45.806Z,98738.77
2022-11-25T20:31:13.034Z,98738.47
2022-11-25T20:33:39.544Z,98739.69
2022-11-25T20:36:11.915Z,98744.64
2022-11-25T20:38:47.409Z,98748.38
2022-11-25T20:41:15.234Z,98745.80
2022-11-25T20:43:43.439Z,98746.63
2022-11-25T20:46:24.528Z,98743.70
2022-11-25T20:48:56.857Z,98751.54
2022-11-25T20:51:24.261Z,98755.59
2022-11-25T20:54:00.799Z,98758.84
2022-11-25T20:56:28.464Z,98759.21
2022-11-25T20:58:55.503Z,98762.16
2022-11-25T21:01:22.630Z,98772.27
2022-11-25T21:03:50.457Z,98772.48
2022-11-25T21:06:16.983Z,98772.83
2022-11-25T21:08:47.464Z,98775.17
2022-11-25T21:11:14.568Z,98774.95
2022-11-25T21:13:41.215Z,98772.52
2022-11-25T21:16:07.764Z,98770.98
2022-11-25T21:18:34.408Z,98774.77
2022-11-25T21:21:01.241Z,98773.40
2022-11-25T21:23:35.559Z,98782.30
2022-11-25T21:26:20.431Z,98782.80
2022-11-25T21:28:49.024Z,98789.14
2022-11-25T21:31:24.428Z,98787.73
2022-11-25T21:33:56.115Z,98789.43
2022-11-25T21:36:28.721Z,98783.60
2022-11-25T21:39:05.682Z,98782.92
2022-11-25T21:41:33.435Z,98784.44
2022-11-25T21:44:00.499Z,98785.45
2022-11-25T21:46:27.010Z,98783.05
2022-11-25T21:48:53.684Z,98787.17
2022-11-25T21:51:20.739Z,98793.00
2022-11-25T21:53:47.996Z,98794.71
2022-11-25T21:56:25.081Z,98796.92
2022-11-25T21:58:51.927Z,98799.02
2022-11-25T22:01:18.820Z,98800.23
2022-11-25T22:03:45.411Z,98800.57
2022-11-25T22:06:26.912Z,98801.05
2022-11-25T22:08:54.159Z,98810.95
2022-11-25T22:11:32.856Z,98812.84
2022-11-25T22:14:02.845Z,98811.16
2022-11-25T22:16:32.781Z,98812.04
2022-11-25T22:19:00.133Z,98814.27
2022-11-25T22:21:26.732Z,98818.89
2022-11-25T22:23:53.174Z,98821.11
2022-11-25T22:26:26.773Z,98817.66
2022-11-25T22:28:54.033Z,98811.53
2022-11-25T22:31:21.131Z,98815.85
2022-11-25T22:33:48.821Z,98817.61
2022-11-25T22:36:35.169Z,98818.48
2022-11-25T22:39:13.385Z,98815.92
2022-11-25T22:41:42.293Z,98817.60
2022-11-25T22:44:19.241Z,98819.14
2022-11-25T22:46:46.483Z,98821.69
2022-11-25T22:49:38.881Z,98822.54
2022-11-25T22:52:10.019Z,98823.55
2022-11-25T22:55:21.094Z,98820.99
2022-11-25T22:58:32.202Z,98815.69
2022-11-25T23:01:43.069Z,98826.42
2022-11-25T23:04:53.926Z,98829.84
2022-11-25T23:08:04.201Z,98832.98
2022-11-25T23:11:14.879Z,98833.89
2022-11-25T23:14:24.726Z,98834.60
2022-11-25T23:16:51.364Z,98833.59
2022-11-25T23:19:17.924Z,98834.80
2022-11-25T23:21:45.293Z,98832.40
2022-11-25T23:24:15.638Z,98831.03
2022-11-25T23:26:43.899Z,98826.41
2022-11-25T23:29:10.438Z,98830.35
2022-11-25T23:31:39.633Z,98826.58
2022-11-25T23:34:07.544Z,98825.91
2022-11-25T23:36:44.752Z,98824.90
2022-11-25T23:39:21.570Z,98824.73
2022-11-25T23:41:48.544Z,98823.90
2022-11-25T23:44:21.647Z,98823.72
2022-11-25T23:46:48.721Z,98823.39
2022-11-25T23:49:28.567Z,98826.61
2022-11-25T23:51:57.442Z,98824.71
2022-11-25T23:54:54.314Z,98826.77
2022-11-25T23:57:31.690Z,98833.82
2022-11-25T23:59:58.840Z,98835.92
